createdAt,value
2022-12-25T00:00:20.930Z,5.87
2022-12-25T00:05:45.107Z,5.87
2022-12-25T00:10:57.819Z,5.77
2022-12-25T00:16:06.993Z,5.70
2022-12-25T00:21:11.501Z,5.72
2022-12-25T00:26:16.977Z,5.78
2022-12-25T00:31:21.690Z,5.84
2022-12-25T00:36:25.650Z,5.88
2022-12-25T00:41:47.801Z,5.87
2022-12-25T00:46:51.653Z,5.92
2022-12-25T00:51:55.647Z,6.00
2022-12-25T00:56:59.360Z,6.09
2022-12-25T01:02:21.662Z,6.16
2022-12-25T01:07:27.003Z,6.24
2022-12-25T01:12:34.001Z,6.22
2022-12-25T01:17:37.753Z,6.11
2022-12-25T01:22:41.666Z,5.98
2022-12-25T01:27:45.317Z,5.83
2022-12-25T01:32:49.127Z,5.67
2022-12-25T01:37:53.275Z,5.52
2022-12-25T01:42:57.052Z,5.40
2022-12-25T01:48:07.475Z,5.38
2022-12-25T01:53:11.920Z,5.40
2022-12-25T01:58:16.802Z,5.40
2022-12-25T02:03:21.952Z,5.41
2022-12-25T02:08:25.931Z,5.38
2022-12-25T02:13:29.777Z,5.34
2022-12-25T02:18:59.406Z,5.31
2022-12-25T02:24:19.027Z,5.30
2022-12-25T02:29:54.735Z,5.38
2022-12-25T02:35:18.637Z,5.40
2022-12-25T02:40:26.915Z,5.32
2022-12-25T02:45:49.180Z,5.33
2022-12-25T02:51:12.653Z,5.40
2022-12-25T02:56:37.863Z,5.45
2022-12-25T03:02:02.023Z,5.48
2022-12-25T03:07:13.002Z,5.47
2022-12-25T03:12:18.818Z,5.39
2022-12-25T03:17:22.583Z,5.32
2022-12-25T03:22:50.494Z,5.33
2022-12-25T03:27:56.356Z,5.36
2022-12-25T03:33:23.577Z,5.37
2022-12-25T03:38:50.814Z,5.33
2022-12-25T03:44:24.806Z,5.27
2022-12-25T03:49:58.663Z,5.15
2022-12-25T03:55:25.610Z,5.03
2022-12-25T04:00:47.787Z,4.96
2022-12-25T04:06:10.120Z,4.95
2022-12-25T04:11:32.401Z,4.96
2022-12-25T04:16:56.424Z,4.89
2022-12-25T04:22:18.933Z,4.78
2022-12-25T04:27:41.634Z,4.67
2022-12-25T04:33:11.394Z,4.54
2022-12-25T04:38:15.185Z,4.45
2022-12-25T04:43:19.443Z,4.38
2022-12-25T04:48:23.381Z,4.31
2022-12-25T04:53:27.048Z,4.21
2022-12-25T04:58:32.424Z,4.08
2022-12-25T05:03:36.784Z,3.99
2022-12-25T05:08:40.628Z,3.99
2022-12-25T05:13:44.873Z,4.05
2022-12-25T05:18:52.252Z,4.13
2022-12-25T05:23:55.913Z,4.24
2022-12-25T05:28:59.718Z,4.31
2022-12-25T05:34:03.837Z,4.34
2022-12-25T05:39:07.555Z,4.35
2022-12-25T05:44:12.643Z,4.38
2022-12-25T05:49:16.516Z,4.41
2022-12-25T05:54:20.266Z,4.47
2022-12-25T05:59:24.041Z,4.50
2022-12-25T06:04:27.800Z,4.48
2022-12-25T06:09:31.524Z,4.44
2022-12-25T06:14:35.833Z,4.39
2022-12-25T06:19:39.621Z,4.34
2022-12-25T06:24:43.444Z,4.31
2022-12-25T06:29:47.233Z,4.28
2022-12-25T06:34:51.362Z,4.11
2022-12-25T06:39:55.003Z,3.79
2022-12-25T06:44:58.822Z,3.49
2022-12-25T06:50:06.223Z,3.25
2022-12-25T06:55:10.305Z,3.11
2022-12-25T07:00:14.645Z,2.93
2022-12-25T07:05:18.639Z,2.75
2022-12-25T07:10:22.367Z,2.59
2022-12-25T07:15:26.119Z,2.52
2022-12-25T07:20:30.475Z,2.54
2022-12-25T07:25:37.411Z,2.52
2022-12-25T07:30:41.431Z,2.49
2022-12-25T07:35:45.127Z,2.47
2022-12-25T07:40:48.990Z,2.54
2022-12-25T07:46:00.861Z,2.68
2022-12-25T07:51:07.347Z,2.81
2022-12-25T07:56:14.090Z,2.85
2022-12-25T08:01:21.660Z,2.87
2022-12-25T08:06:30.122Z,2.92
2022-12-25T08:11:34.097Z,3.00
2022-12-25T08:16:42.017Z,3.10
2022-12-25T08:21:45.948Z,3.25
2022-12-25T08:26:49.614Z,3.38
2022-12-25T08:31:53.783Z,3.50
2022-12-25T08:36:57.528Z,3.60
2022-12-25T08:42:01.207Z,3.72
2022-12-25T08:47:05.216Z,3.86
2022-12-25T08:52:09.060Z,4.02
2022-12-25T08:57:12.789Z,4.19
2022-12-25T09:02:17.562Z,4.35
2022-12-25T09:07:21.591Z,4.51
2022-12-25T09:12:25.367Z,4.65
2022-12-25T09:17:29.233Z,4.79
2022-12-25T09:22:34.688Z,4.94
2022-12-25T09:27:39.735Z,5.11
2022-12-25T09:32:43.610Z,5.27
2022-12-25T09:37:47.328Z,5.42
2022-12-25T09:42:53.970Z,5.55
2022-12-25T09:47:57.740Z,5.59
2022-12-25T09:53:08.007Z,5.64
2022-12-25T09:58:13.641Z,5.75
2022-12-25T10:03:40.298Z,5.86
2022-12-25T10:09:17.031Z,5.99
2022-12-25T10:14:31.489Z,6.16
2022-12-25T10:19:41.004Z,6.30
2022-12-25T10:24:52.627Z,6.46
2022-12-25T10:29:56.436Z,6.62
2022-12-25T10:35:00.274Z,6.76
2022-12-25T10:40:04.848Z,6.90
2022-12-25T10:45:10.230Z,7.04
2022-12-25T10:50:24.829Z,7.15
2022-12-25T10:55:29.707Z,7.25
2022-12-25T11:00:34.299Z,7.33
2022-12-25T11:05:38.151Z,7.38
2022-12-25T11:10:44.845Z,7.45
2022-12-25T11:15:49.726Z,7.54
2022-12-25T11:20:58.511Z,7.62
2022-12-25T11:26:05.375Z,7.70
2022-12-25T11:31:20.230Z,7.79
2022-12-25T11:36:46.384Z,7.88
2022-12-25T11:42:16.074Z,7.98
2022-12-25T11:47:29.803Z,8.07
2022-12-25T11:52:37.401Z,8.16
2022-12-25T11:57:41.994Z,8.26
2022-12-25T12:03:10.176Z,8.37
2022-12-25T12:08:14.796Z,8.48
2022-12-25T12:13:31.002Z,8.58
2022-12-25T12:18:35.084Z,8.63
2022-12-25T12:24:10.065Z,8.72
2022-12-25T12:29:44.039Z,8.87
2022-12-25T12:34:51.677Z,9.15
2022-12-25T12:39:55.903Z,9.51
2022-12-25T12:45:09.569Z,9.78
2022-12-25T12:50:42.970Z,9.92
2022-12-25T12:55:46.802Z,10.01
2022-12-25T13:01:01.222Z,10.01
2022-12-25T13:06:14.242Z,10.01
2022-12-25T13:11:18.050Z,9.98
2022-12-25T13:16:26.025Z,10.03
2022-12-25T13:21:30.330Z,10.12
2022-12-25T13:26:34.244Z,10.07
2022-12-25T13:31:38.082Z,9.89
2022-12-25T13:36:41.900Z,9.69
2022-12-25T13:42:05.900Z,9.47
2022-12-25T13:47:25.038Z,9.23
2022-12-25T13:52:35.030Z,8.97
2022-12-25T13:57:41.805Z,8.78
2022-12-25T14:02:45.974Z,8.60
2022-12-25T14:07:58.697Z,8.41
2022-12-25T14:13:06.429Z,8.23
2022-12-25T14:18:18.028Z,8.06
2022-12-25T14:23:22.000Z,7.87
2022-12-25T14:28:32.855Z,7.66
2022-12-25T14:33:39.257Z,7.49
2022-12-25T14:38:44.363Z,7.37
2022-12-25T14:43:55.556Z,7.28
2022-12-25T14:49:07.798Z,7.21
2022-12-25T14:54:17.523Z,7.13
2022-12-25T14:59:24.677Z,7.06
2022-12-25T15:04:29.125Z,7.01
2022-12-25T15:09:33.499Z,6.98
2022-12-25T15:14:40.495Z,6.94
2022-12-25T15:19:44.311Z,6.89
2022-12-25T15:24:48.194Z,6.90
2022-12-25T15:35:19.258Z,6.85
2022-12-25T15:40:23.203Z,6.86
2022-12-25T15:45:29.533Z,6.86
2022-12-25T15:50:35.513Z,6.84
2022-12-25T15:55:40.127Z,6.79
2022-12-25T16:00:43.986Z,6.76
2022-12-25T16:05:47.805Z,6.73
2022-12-25T16:10:51.607Z,6.68
2022-12-25T16:15:55.411Z,6.59
2022-12-25T16:20:59.577Z,6.52
2022-12-25T16:26:03.442Z,6.47
2022-12-25T16:31:07.828Z,6.45
2022-12-25T16:36:11.687Z,6.44
2022-12-25T16:41:16.552Z,6.43
2022-12-25T16:46:22.813Z,6.43
2022-12-25T16:51:27.699Z,6.44
2022-12-25T16:56:32.790Z,6.46
2022-12-25T17:01:38.541Z,6.46
2022-12-25T17:06:42.550Z,6.47
2022-12-25T17:11:46.518Z,6.46
2022-12-25T17:16:50.402Z,6.44
2022-12-25T17:21:57.653Z,6.44
2022-12-25T17:27:01.443Z,6.44
2022-12-25T17:32:05.343Z,6.43
2022-12-25T17:37:09.172Z,6.39
2022-12-25T17:42:12.966Z,6.35
2022-12-25T17:47:16.840Z,6.32
2022-12-25T17:52:20.865Z,6.30
2022-12-25T17:57:24.687Z,6.29
2022-12-25T18:02:30.478Z,6.28
2022-12-25T18:07:34.549Z,6.25
2022-12-25T18:12:38.320Z,6.22
2022-12-25T18:17:42.078Z,6.19
2022-12-25T18:22:45.869Z,6.19
2022-12-25T18:27:49.664Z,6.22
2022-12-25T18:32:53.481Z,6.23
2022-12-25T18:37:59.507Z,6.22
2022-12-25T18:43:03.768Z,6.22
2022-12-25T18:48:08.387Z,6.23
2022-12-25T18:53:12.382Z,6.22
2022-12-25T18:58:16.217Z,6.23
2022-12-25T19:03:20.258Z,6.24
2022-12-25T19:08:24.746Z,6.24
2022-12-25T19:13:28.844Z,6.23
2022-12-25T19:18:33.114Z,6.23
2022-12-25T19:23:41.180Z,6.24
2022-12-25T19:28:44.942Z,6.25
2022-12-25T19:33:49.033Z,6.28
2022-12-25T19:38:52.785Z,6.30
2022-12-25T19:43:56.827Z,6.33
2022-12-25T19:49:04.624Z,6.35
2022-12-25T19:54:14.752Z,6.36
2022-12-25T19:59:18.951Z,6.36
2022-12-25T20:04:23.167Z,6.35
2022-12-25T20:09:27.053Z,6.32
2022-12-25T20:14:30.778Z,6.25
2022-12-25T20:19:42.684Z,6.16
2022-12-25T20:24:48.187Z,6.09
2022-12-25T20:29:52.456Z,6.05
2022-12-25T20:34:56.654Z,6.05
2022-12-25T20:40:00.526Z,6.08
2022-12-25T20:45:07.080Z,6.11
2022-12-25T20:50:11.211Z,6.13
2022-12-25T20:55:15.022Z,6.12
2022-12-25T21:00:18.720Z,6.11
2022-12-25T21:05:22.456Z,6.12
2022-12-25T21:10:26.321Z,6.10
2022-12-25T21:15:30.050Z,6.11
2022-12-25T21:20:33.736Z,6.14
2022-12-25T21:25:37.478Z,6.17
2022-12-25T21:30:41.437Z,6.20
2022-12-25T21:35:45.194Z,6.24
2022-12-25T21:40:48.977Z,6.28
2022-12-25T21:45:52.876Z,6.34
2022-12-25T21:51:27.666Z,6.38
2022-12-25T21:56:35.227Z,6.42
2022-12-25T22:01:42.913Z,6.45
2022-12-25T22:07:06.075Z,6.47
2022-12-25T22:12:33.842Z,6.50
2022-12-25T22:17:58.986Z,6.49
2022-12-25T22:23:03.659Z,6.48
2022-12-25T22:28:08.934Z,6.46
2022-12-25T22:33:13.290Z,6.44
2022-12-25T22:38:17.146Z,6.43
2022-12-25T22:43:20.866Z,6.41
2022-12-25T22:48:24.616Z,6.38
2022-12-25T22:53:28.313Z,6.35
2022-12-25T22:58:32.063Z,6.35
2022-12-25T23:03:35.845Z,6.35
2022-12-25T23:08:39.716Z,6.34
2022-12-25T23:14:02.030Z,6.35
2022-12-25T23:19:25.399Z,6.36
2022-12-25T23:24:48.579Z,6.39
2022-12-25T23:29:54.811Z,6.41
2022-12-25T23:34:58.456Z,6.41
2022-12-25T23:40:02.141Z,6.41
2022-12-25T23:45:06.562Z,6.41
2022-12-25T23:50:10.837Z,6.41
2022-12-25T23:55:14.553Z,6.42
